Dionea — ISYR — position and weather

sailwx.info

Track history (hours):
 
Tides and Currents Weather Stations Pressure Air Temp Water Temp Dewpoint Dewpoint Depression Visibility Wind Speed Wind Dir Waves Ship Positions

Dionea

Last reported at 2014-Oct-01 21:32 UTC. Time now 2014-Oct-01 22:21 UTC.
Position N 44°24' E 008°56'.

Length 52 m.

Type: Pleasure craft. MMSI: 247159400.

Date/timePositionNaut miles runAvg speedWind from/ knotsBaromVisibWave heightAir tempDewpointWater temp
2014-Oct-01 21:32N 44°24' E 008°56'0 0.0
2014-Oct-01 20:33N 44°24' E 008°56'0 0.0
2014-Oct-01 19:32N 44°24' E 008°56'0 0.0
2014-Oct-01 18:33N 44°24' E 008°56'0 0.0
2014-Oct-01 17:31N 44°24' E 008°56'0 0.0
2014-Oct-01 16:27N 44°24' E 008°56'0 0.0
2014-Oct-01 15:33N 44°24' E 008°56'0 0.0
2014-Oct-01 14:33N 44°24' E 008°56'0 0.0
2014-Oct-01 13:19N 44°24' E 008°56'0 0.0
2014-Oct-01 12:33N 44°24' E 008°56'0 0.0
2014-Oct-01 11:33N 44°24' E 008°56'0 0.0
2014-Oct-01 10:33N 44°24' E 008°56'0 0.0
2014-Oct-01 09:33N 44°24' E 008°56'0 0.0
2014-Oct-01 08:33N 44°24' E 008°56'0 0.0
2014-Oct-01 07:32N 44°24' E 008°56'2 0.1
2014-Sep-30 17:33N 44°23' E 008°58'9 9.2
2014-Sep-30 16:33N 44°15' E 008°50'1110.9
2014-Sep-30 15:33N 44°09' E 008°37'41 1.6
2014-Sep-29 14:15N 43°49' E 007°47'20 4.2
2014-Sep-29 09:32N 43°42' E 007°22'1 1.1
2014-Sep-29 08:32N 43°42' E 007°20'0 0.0
2014-Sep-29 07:33N 43°42' E 007°21'0 0.0
2014-Sep-29 06:33N 43°42' E 007°21'0 0.0
2014-Sep-29 05:33N 43°42' E 007°21'0 0.0
2014-Sep-29 04:33N 43°42' E 007°21'0 0.0
2014-Sep-29 03:33N 43°42' E 007°21'0 0.0
2014-Sep-29 02:33N 43°42' E 007°21'0 0.0
2014-Sep-29 01:33N 43°42' E 007°21'0 0.0
2014-Sep-29 00:33N 43°42' E 007°21'0 0.0
2014-Sep-28 23:33N 43°42' E 007°21'0 0.0
2014-Sep-28 22:32N 43°42' E 007°21'0 0.0
2014-Sep-28 21:33N 43°42' E 007°21'0 0.0
2014-Sep-28 20:32N 43°42' E 007°21'0 0.0
2014-Sep-28 19:32N 43°42' E 007°21'0 0.0
2014-Sep-28 18:33N 43°42' E 007°20'0 0.0
2014-Sep-28 17:34N 43°42' E 007°21'0 0.0
2014-Sep-28 16:33N 43°42' E 007°21'0 0.3
2014-Sep-28 15:33N 43°41' E 007°21'0 0.2
2014-Sep-28 14:33N 43°41' E 007°21'0 0.0
2014-Sep-28 13:33N 43°41' E 007°21'0 0.0
2014-Sep-28 12:32N 43°41' E 007°21'3 2.9
2014-Sep-28 11:33N 43°41' E 007°17'0 0.1
2014-Sep-28 10:34N 43°41' E 007°17'1 1.2
2014-Sep-28 09:34N 43°41' E 007°18'8 3.5
2014-Sep-28 07:18N 43°45' E 007°28'0 0.0
2014-Sep-28 04:34N 43°45' E 007°28'0 0.0
2014-Sep-28 01:21N 43°45' E 007°28'0 0.0
2014-Sep-27 21:27N 43°45' E 007°28'0 0.0
2014-Sep-27 18:28N 43°45' E 007°28'0 0.0
2014-Sep-27 17:15N 43°45' E 007°28'0 0.0
2014-Sep-27 16:17N 43°45' E 007°28'0 0.1
2014-Sep-27 13:23N 43°45' E 007°27'0 0.0
2014-Sep-27 12:27N 43°45' E 007°27'0 0.0
2014-Sep-27 03:31N 43°45' E 007°27'0 0.0
2014-Sep-26 18:23N 43°45' E 007°28'0 0.0
2014-Sep-26 17:21N 43°45' E 007°28'0 0.0
2014-Sep-26 15:26N 43°45' E 007°28'0 0.0
2014-Sep-26 05:23N 43°45' E 007°28'0 0.0
2014-Sep-26 04:23N 43°45' E 007°28'0 0.0
2014-Sep-26 03:28N 43°45' E 007°28'0 0.0
2014-Sep-26 02:27N 43°45' E 007°28'0 0.0
2014-Sep-25 06:23N 43°45' E 007°28'0 0.0
2014-Sep-25 04:20N 43°45' E 007°28'0 0.0
2014-Sep-25 00:15N 43°45' E 007°28'0 0.0
2014-Sep-24 12:21N 43°45' E 007°28'0 0.0
2014-Sep-24 10:04N 43°45' E 007°28'1 1.7
2014-Sep-24 09:34N 43°44' E 007°27'1110.6
2014-Sep-24 08:32N 43°37' E 007°16'1010.7
2014-Sep-24 07:33N 43°30' E 007°05'4 3.5
2014-Sep-24 06:33N 43°33' E 007°01'0 0.0
2014-Sep-24 05:32N 43°33' E 007°01'0 0.0
2014-Sep-24 04:34N 43°33' E 007°01'0 0.0
2014-Sep-24 03:34N 43°33' E 007°01'0 0.0
2014-Sep-24 02:32N 43°33' E 007°01'0 0.0
2014-Sep-24 01:33N 43°33' E 007°01'0 0.0
2014-Sep-24 00:33N 43°33' E 007°01'0 0.0
2014-Sep-23 23:33N 43°33' E 007°01'0 0.0
2014-Sep-23 22:31N 43°33' E 007°01'0 0.0
2014-Sep-23 21:31N 43°33' E 007°01'0 0.0
2014-Sep-23 20:34N 43°33' E 007°01'0 0.0
2014-Sep-23 19:33N 43°33' E 007°01'0 0.0
2014-Sep-23 18:33N 43°33' E 007°01'0 0.0
2014-Sep-23 17:33N 43°33' E 007°01'0 0.0
2014-Sep-23 16:33N 43°33' E 007°01'0 0.0
2014-Sep-23 15:34N 43°33' E 007°01'0 0.0
2014-Sep-23 14:33N 43°33' E 007°01'0 0.0
2014-Sep-23 13:33N 43°33' E 007°01'0 0.0
2014-Sep-23 12:33N 43°33' E 007°01'0 0.0
2014-Sep-23 11:33N 43°33' E 007°01'0 0.0
2014-Sep-23 10:32N 43°33' E 007°01'0 0.0
2014-Sep-23 09:33N 43°33' E 007°01'4 4.3
2014-Sep-23 08:33N 43°33' E 007°07'0 0.0
2014-Sep-23 07:33N 43°33' E 007°07'0 0.0
2014-Sep-23 06:31N 43°33' E 007°07'0 0.0
2014-Sep-23 05:33N 43°33' E 007°07'0 0.0
2014-Sep-23 04:33N 43°33' E 007°07'0 0.0
2014-Sep-23 03:33N 43°33' E 007°07'0 0.0
2014-Sep-23 02:33N 43°33' E 007°07'0 0.0
2014-Sep-23 01:34N 43°33' E 007°07'0 0.0
2014-Sep-23 00:33N 43°33' E 007°07'0 0.0
2014-Sep-22 23:33N 43°33' E 007°07'0 0.0
2014-Sep-22 22:34N 43°33' E 007°07'5 5.3
2014-Sep-22 21:33N 43°29' E 007°03'1110.9
2014-Sep-22 20:33N 43°23' E 006°50'1111.1
2014-Sep-22 19:33N 43°16' E 006°38'0 0.0
2014-Sep-22 18:11N 43°16' E 006°38'0 0.0
2014-Sep-22 17:29N 43°16' E 006°38'4 3.9
2014-Sep-22 16:33N 43°17' E 006°43'4 3.6
2014-Sep-22 15:33N 43°14' E 006°40'0 0.0
2014-Sep-22 14:33N 43°14' E 006°40'0 0.0
2014-Sep-22 13:32N 43°14' E 006°40'1 0.7
2014-Sep-22 12:32N 43°14' E 006°41'1111.7
2014-Sep-22 11:33N 43°23' E 006°52'1010.1
2014-Sep-22 10:32N 43°29' E 007°03'1211.8
2014-Sep-22 09:33N 43°37' E 007°15'7 7.1
2014-Sep-22 08:33N 43°42' E 007°21'0 0.0
2014-Sep-22 06:22N 43°42' E 007°21'0 0.0
2014-Sep-22 05:33N 43°42' E 007°21'0 0.0
2014-Sep-22 04:32N 43°42' E 007°21'0 0.0
2014-Sep-22 03:32N 43°42' E 007°21'0 0.0
2014-Sep-22 02:33N 43°42' E 007°21'0 0.0
2014-Sep-22 01:33N 43°42' E 007°21'0 0.0
2014-Sep-22 00:34N 43°42' E 007°21'0 0.0
2014-Sep-21 23:33N 43°42' E 007°21'0 0.0
2014-Sep-21 22:33N 43°42' E 007°21'0 0.0
2014-Sep-21 21:33N 43°42' E 007°21'  
Track history (hours):
 
Tides and Currents Weather Stations Pressure Air Temp Water Temp Dewpoint Dewpoint Depression Visibility Wind Speed Wind Dir Waves Ship Positions

Dionea

Last reported at 2014-Oct-01 21:32 UTC. Time now 2014-Oct-01 22:21 UTC.
Position N 44°24' E 008°56'.

Length 52 m.

Type: Pleasure craft. MMSI: 247159400.

Date/timePositionNaut miles runAvg speedWind from/ knotsBaromVisibWave heightAir tempDewpointWater temp
2014-Oct-01 21:32N 44°24' E 008°56'0 0.0
2014-Oct-01 20:33N 44°24' E 008°56'0 0.0
2014-Oct-01 19:32N 44°24' E 008°56'0 0.0
2014-Oct-01 18:33N 44°24' E 008°56'0 0.0
2014-Oct-01 17:31N 44°24' E 008°56'0 0.0
2014-Oct-01 16:27N 44°24' E 008°56'0 0.0
2014-Oct-01 15:33N 44°24' E 008°56'0 0.0
2014-Oct-01 14:33N 44°24' E 008°56'0 0.0
2014-Oct-01 13:19N 44°24' E 008°56'0 0.0
2014-Oct-01 12:33N 44°24' E 008°56'0 0.0
2014-Oct-01 11:33N 44°24' E 008°56'0 0.0
2014-Oct-01 10:33N 44°24' E 008°56'0 0.0
2014-Oct-01 09:33N 44°24' E 008°56'0 0.0
2014-Oct-01 08:33N 44°24' E 008°56'0 0.0
2014-Oct-01 07:32N 44°24' E 008°56'2 0.1
2014-Sep-30 17:33N 44°23' E 008°58'9 9.2
2014-Sep-30 16:33N 44°15' E 008°50'1110.9
2014-Sep-30 15:33N 44°09' E 008°37'41 1.6
2014-Sep-29 14:15N 43°49' E 007°47'20 4.2
2014-Sep-29 09:32N 43°42' E 007°22'1 1.1
2014-Sep-29 08:32N 43°42' E 007°20'0 0.0
2014-Sep-29 07:33N 43°42' E 007°21'0 0.0
2014-Sep-29 06:33N 43°42' E 007°21'0 0.0
2014-Sep-29 05:33N 43°42' E 007°21'0 0.0
2014-Sep-29 04:33N 43°42' E 007°21'0 0.0
2014-Sep-29 03:33N 43°42' E 007°21'0 0.0
2014-Sep-29 02:33N 43°42' E 007°21'0 0.0
2014-Sep-29 01:33N 43°42' E 007°21'0 0.0
2014-Sep-29 00:33N 43°42' E 007°21'0 0.0
2014-Sep-28 23:33N 43°42' E 007°21'0 0.0
2014-Sep-28 22:32N 43°42' E 007°21'0 0.0
2014-Sep-28 21:33N 43°42' E 007°21'0 0.0
2014-Sep-28 20:32N 43°42' E 007°21'0 0.0
2014-Sep-28 19:32N 43°42' E 007°21'0 0.0
2014-Sep-28 18:33N 43°42' E 007°20'0 0.0
2014-Sep-28 17:34N 43°42' E 007°21'0 0.0
2014-Sep-28 16:33N 43°42' E 007°21'0 0.3
2014-Sep-28 15:33N 43°41' E 007°21'0 0.2
2014-Sep-28 14:33N 43°41' E 007°21'0 0.0
2014-Sep-28 13:33N 43°41' E 007°21'0 0.0
2014-Sep-28 12:32N 43°41' E 007°21'3 2.9
2014-Sep-28 11:33N 43°41' E 007°17'0 0.1
2014-Sep-28 10:34N 43°41' E 007°17'1 1.2
2014-Sep-28 09:34N 43°41' E 007°18'8 3.5
2014-Sep-28 07:18N 43°45' E 007°28'0 0.0
2014-Sep-28 04:34N 43°45' E 007°28'0 0.0
2014-Sep-28 01:21N 43°45' E 007°28'0 0.0
2014-Sep-27 21:27N 43°45' E 007°28'0 0.0
2014-Sep-27 18:28N 43°45' E 007°28'0 0.0
2014-Sep-27 17:15N 43°45' E 007°28'0 0.0
2014-Sep-27 16:17N 43°45' E 007°28'0 0.1
2014-Sep-27 13:23N 43°45' E 007°27'0 0.0
2014-Sep-27 12:27N 43°45' E 007°27'0 0.0
2014-Sep-27 03:31N 43°45' E 007°27'0 0.0
2014-Sep-26 18:23N 43°45' E 007°28'0 0.0
2014-Sep-26 17:21N 43°45' E 007°28'0 0.0
2014-Sep-26 15:26N 43°45' E 007°28'0 0.0
2014-Sep-26 05:23N 43°45' E 007°28'0 0.0
2014-Sep-26 04:23N 43°45' E 007°28'0 0.0
2014-Sep-26 03:28N 43°45' E 007°28'0 0.0
2014-Sep-26 02:27N 43°45' E 007°28'0 0.0
2014-Sep-25 06:23N 43°45' E 007°28'0 0.0
2014-Sep-25 04:20N 43°45' E 007°28'0 0.0
2014-Sep-25 00:15N 43°45' E 007°28'0 0.0
2014-Sep-24 12:21N 43°45' E 007°28'0 0.0
2014-Sep-24 10:04N 43°45' E 007°28'1 1.7
2014-Sep-24 09:34N 43°44' E 007°27'1110.6
2014-Sep-24 08:32N 43°37' E 007°16'1010.7
2014-Sep-24 07:33N 43°30' E 007°05'4 3.5
2014-Sep-24 06:33N 43°33' E 007°01'0 0.0
2014-Sep-24 05:32N 43°33' E 007°01'0 0.0
2014-Sep-24 04:34N 43°33' E 007°01'0 0.0
2014-Sep-24 03:34N 43°33' E 007°01'0 0.0
2014-Sep-24 02:32N 43°33' E 007°01'0 0.0
2014-Sep-24 01:33N 43°33' E 007°01'0 0.0
2014-Sep-24 00:33N 43°33' E 007°01'0 0.0
2014-Sep-23 23:33N 43°33' E 007°01'0 0.0
2014-Sep-23 22:31N 43°33' E 007°01'0 0.0
2014-Sep-23 21:31N 43°33' E 007°01'0 0.0
2014-Sep-23 20:34N 43°33' E 007°01'0 0.0
2014-Sep-23 19:33N 43°33' E 007°01'0 0.0
2014-Sep-23 18:33N 43°33' E 007°01'0 0.0
2014-Sep-23 17:33N 43°33' E 007°01'0 0.0
2014-Sep-23 16:33N 43°33' E 007°01'0 0.0
2014-Sep-23 15:34N 43°33' E 007°01'0 0.0
2014-Sep-23 14:33N 43°33' E 007°01'0 0.0
2014-Sep-23 13:33N 43°33' E 007°01'0 0.0
2014-Sep-23 12:33N 43°33' E 007°01'0 0.0
2014-Sep-23 11:33N 43°33' E 007°01'0 0.0
2014-Sep-23 10:32N 43°33' E 007°01'0 0.0
2014-Sep-23 09:33N 43°33' E 007°01'4 4.3
2014-Sep-23 08:33N 43°33' E 007°07'0 0.0
2014-Sep-23 07:33N 43°33' E 007°07'0 0.0
2014-Sep-23 06:31N 43°33' E 007°07'0 0.0
2014-Sep-23 05:33N 43°33' E 007°07'0 0.0
2014-Sep-23 04:33N 43°33' E 007°07'0 0.0
2014-Sep-23 03:33N 43°33' E 007°07'0 0.0
2014-Sep-23 02:33N 43°33' E 007°07'0 0.0
2014-Sep-23 01:34N 43°33' E 007°07'0 0.0
2014-Sep-23 00:33N 43°33' E 007°07'0 0.0
2014-Sep-22 23:33N 43°33' E 007°07'0 0.0
2014-Sep-22 22:34N 43°33' E 007°07'5 5.3
2014-Sep-22 21:33N 43°29' E 007°03'1110.9
2014-Sep-22 20:33N 43°23' E 006°50'1111.1
2014-Sep-22 19:33N 43°16' E 006°38'0 0.0
2014-Sep-22 18:11N 43°16' E 006°38'0 0.0
2014-Sep-22 17:29N 43°16' E 006°38'4 3.9
2014-Sep-22 16:33N 43°17' E 006°43'4 3.6
2014-Sep-22 15:33N 43°14' E 006°40'0 0.0
2014-Sep-22 14:33N 43°14' E 006°40'0 0.0
2014-Sep-22 13:32N 43°14' E 006°40'1 0.7
2014-Sep-22 12:32N 43°14' E 006°41'1111.7
2014-Sep-22 11:33N 43°23' E 006°52'1010.1
2014-Sep-22 10:32N 43°29' E 007°03'1211.8
2014-Sep-22 09:33N 43°37' E 007°15'7 7.1
2014-Sep-22 08:33N 43°42' E 007°21'0 0.0
2014-Sep-22 06:22N 43°42' E 007°21'0 0.0
2014-Sep-22 05:33N 43°42' E 007°21'0 0.0
2014-Sep-22 04:32N 43°42' E 007°21'0 0.0
2014-Sep-22 03:32N 43°42' E 007°21'0 0.0
2014-Sep-22 02:33N 43°42' E 007°21'0 0.0
2014-Sep-22 01:33N 43°42' E 007°21'0 0.0
2014-Sep-22 00:34N 43°42' E 007°21'0 0.0
2014-Sep-21 23:33N 43°42' E 007°21'0 0.0
2014-Sep-21 22:33N 43°42' E 007°21'0 0.0
2014-Sep-21 21:33N 43°42' E 007°21'  

Dump ship's entire track history